Kelloggsville, Ohio
Current Conditions -  °F | °C
As of 2:53 AM on Saturday 29 Nov 2014 (Local Time) from KHZY Reporting Station
Overcast Overcast  
Wind Chill: 18°   Ceiling: 7000
Heat Index: 27°   Visibility: 10mi
Dew Point: 20°   Wind: 9mph
Humidity: 75%   Direction: 160°SSE
Pressure: 30.13"   Gusts: NA
Location:  41.8949°N, 80.5816°W
Report Text: KHZY 290753Z AUTO 16008KT 10SM SCT043 OVC070 M03/M07 A3013 RMK AO2 SLP217 T10281067
Loading
Personal Weather Stations






























Interactive Weather Map New forecast layout! Learn more

10-Day Weather Forecast

Advertisements
Track Severe Weather on mobile